Time;durP1;ratioP1;P1;durP2;ratioP2;P2;SDS_P1;SDS_P2;PMS_P1;PMS_P2;Temp;Humidity;BMP_temperature;BMP_pressure;BME280_temperature;BME280_humidity;BME280_pressure;Samples;Min_cycle;Max_cycle;Signal;HPM_P1;HPM_P2
2023/08/21 00:00:13;;;;;;;1.77;0.82;;;;;;;21.83;86.81;101526.72;4949732;28;20125;-68
2023/08/21 00:02:39;;;;;;;0.80;0.80;;;;;;;21.76;86.33;101534.97;4969198;28;20043;-68
2023/08/21 00:05:09;;;;;;;1.48;0.90;;;;;;;21.73;87.17;101525.63;4961115;28;20403;-66
2023/08/21 00:07:34;;;;;;;4.05;0.90;;;;;;;21.70;87.52;101525.66;4982562;28;20049;-69
2023/08/21 00:09:59;;;;;;;1.50;0.80;;;;;;;21.68;87.26;101525.28;5032136;28;20033;-68
2023/08/21 00:12:25;;;;;;;1.85;1.00;;;;;;;21.65;86.76;101529.63;5006337;28;20955;-68
2023/08/21 00:14:50;;;;;;;1.60;0.80;;;;;;;21.62;87.36;101524.97;5024405;28;20033;-68
2023/08/21 00:17:16;;;;;;;2.38;0.68;;;;;;;21.62;87.07;101522.22;5025853;28;20038;-69
2023/08/21 00:19:41;;;;;;;1.30;0.77;;;;;;;21.62;87.39;101527.69;5018719;28;20033;-68
2023/08/21 00:22:07;;;;;;;1.48;0.95;;;;;;;21.53;87.60;101524.66;5001980;28;20038;-68
2023/08/21 00:24:32;;;;;;;1.63;0.80;;;;;;;21.53;87.42;101517.22;5014258;28;20044;-68
2023/08/21 00:26:58;;;;;;;1.23;0.77;;;;;;;21.31;88.11;101521.34;5027098;28;20037;-68
2023/08/21 00:29:23;;;;;;;3.22;1.15;;;;;;;21.31;88.36;101526.06;5013956;28;20049;-69
2023/08/21 00:31:49;;;;;;;1.60;1.02;;;;;;;21.37;88.34;101527.94;5022805;28;20139;-69
2023/08/21 00:34:17;;;;;;;1.40;0.85;;;;;;;21.32;88.03;101525.66;5013113;28;20037;-68
2023/08/21 00:37:03;;;;;;;1.17;0.93;;;;;;;21.29;87.77;101522.94;5014000;28;20033;-67
2023/08/21 00:39:28;;;;;;;1.38;0.90;;;;;;;21.28;88.32;101524.13;4935764;29;20586;-67
2023/08/21 00:41:54;;;;;;;2.83;0.90;;;;;;;21.26;87.61;101523.75;4923111;29;20048;-65
2023/08/21 00:44:19;;;;;;;2.42;0.98;;;;;;;21.25;88.06;101533.16;4926998;29;20590;-68
2023/08/21 00:46:45;;;;;;;1.58;0.95;;;;;;;21.19;88.10;101527.34;4913662;29;20039;-68
2023/08/21 00:49:11;;;;;;;1.88;1.35;;;;;;;21.10;88.55;101516.06;4933308;29;20082;-66
2023/08/21 00:51:36;;;;;;;3.22;1.10;;;;;;;21.09;88.72;101520.00;4928548;29;20062;-66
2023/08/21 00:54:03;;;;;;;0.98;0.88;;;;;;;21.19;88.07;101523.81;4930862;29;20044;-67
2023/08/21 00:56:29;;;;;;;2.17;0.60;;;;;;;21.11;88.05;101517.63;4931744;29;20075;-67
2023/08/21 00:58:55;;;;;;;3.15;0.68;;;;;;;21.08;88.39;101517.66;4934640;29;20071;-65
2023/08/21 01:01:25;;;;;;;1.58;0.80;;;;;;;21.04;87.83;101525.91;4916127;29;20051;-69
2023/08/21 01:03:52;;;;;;;2.13;1.02;;;;;;;21.03;87.70;101529.81;4928231;29;20055;-68
2023/08/21 01:06:19;;;;;;;1.52;0.80;;;;;;;20.99;87.81;101531.00;4928298;29;20028;-66
2023/08/21 01:08:57;;;;;;;3.30;1.13;;;;;;;20.94;88.05;101526.75;4924775;29;20039;-68
2023/08/21 01:11:43;;;;;;;3.00;0.70;;;;;;;20.81;88.27;101520.19;4931276;29;20070;-69
2023/08/21 01:14:39;;;;;;;2.80;1.15;;;;;;;20.73;88.71;101526.13;4927254;29;20035;-68
2023/08/21 01:17:06;;;;;;;1.25;0.98;;;;;;;20.74;89.17;101520.25;5001658;28;20057;-68
2023/08/21 01:19:34;;;;;;;1.38;0.90;;;;;;;20.81;89.13;101520.19;5022695;28;20037;-66
2023/08/21 01:22:00;;;;;;;3.38;0.98;;;;;;;20.78;88.60;101523.72;5017034;28;20029;-68
2023/08/21 01:24:26;;;;;;;2.25;1.00;;;;;;;20.84;88.07;101519.38;5030540;28;20095;-68
2023/08/21 01:26:51;;;;;;;3.88;1.00;;;;;;;20.81;87.59;101522.91;5028823;28;20037;-69
2023/08/21 01:29:17;;;;;;;3.28;0.85;;;;;;;20.76;87.82;101528.84;5018181;28;20102;-68
2023/08/21 01:31:50;;;;;;;0.98;0.80;;;;;;;20.68;88.20;101525.38;5019860;28;20429;-69
2023/08/21 01:34:16;;;;;;;0.63;0.63;;;;;;;20.66;88.48;101529.69;5012364;28;20413;-68
2023/08/21 01:36:42;;;;;;;3.45;1.25;;;;;;;;;;5028779;28;20034;-69
2023/08/21 01:39:08;;;;;;;1.35;1.10;;;;;;;20.32;89.93;101528.72;5030348;28;20034;-69
2023/08/21 01:41:33;;;;;;;3.47;0.90;;;;;;;20.36;89.80;101524.03;5006731;28;20038;-68
2023/08/21 01:43:59;;;;;;;2.00;1.10;;;;;;;20.43;89.93;101532.97;5027320;28;20026;-68
2023/08/21 01:46:25;;;;;;;0.68;0.63;;;;;;;20.48;89.69;101529.00;5030564;28;20456;-68
2023/08/21 01:48:51;;;;;;;5.03;1.10;;;;;;;20.49;89.65;101533.31;5025665;28;20036;-68
2023/08/21 01:51:16;;;;;;;2.50;1.15;;;;;;;20.53;89.27;101539.56;5022777;28;20034;-69
2023/08/21 01:53:43;;;;;;;0.95;0.70;;;;;;;20.52;89.70;101546.19;5008769;28;20033;-68
2023/08/21 01:56:09;;;;;;;1.45;0.90;;;;;;;20.53;89.50;101534.09;5030237;28;20477;-67
2023/08/21 01:58:34;;;;;;;2.50;1.13;;;;;;;20.41;89.79;101532.59;5001171;28;20084;-68
2023/08/21 02:01:00;;;;;;;1.63;1.00;;;;;;;20.36;90.05;101522.03;5006354;28;20033;-69
2023/08/21 02:03:26;;;;;;;4.38;1.50;;;;;;;20.39;89.75;101526.72;5017753;28;20032;-69
2023/08/21 02:05:57;;;;;;;1.42;1.10;;;;;;;20.41;89.54;101535.31;5020001;28;20050;-68
2023/08/21 02:08:30;;;;;;;2.50;1.17;;;;;;;20.37;89.91;101528.31;5024242;28;20075;-69
2023/08/21 02:10:55;;;;;;;1.00;0.80;;;;;;;20.38;89.80;101530.63;5029789;28;20057;-68
2023/08/21 02:13:20;;;;;;;1.70;1.05;;;;;;;20.28;90.40;101520.53;5008699;28;20168;-68
2023/08/21 02:15:46;;;;;;;2.17;1.30;;;;;;;20.29;90.13;101524.03;5008903;28;20053;-69
2023/08/21 02:18:11;;;;;;;1.17;1.08;;;;;;;20.22;90.21;101526.81;5012037;28;20540;-67
2023/08/21 02:20:38;;;;;;;2.97;1.15;;;;;;;20.16;91.16;101531.13;5026578;28;20103;-66
2023/08/21 02:23:03;;;;;;;1.65;1.08;;;;;;;20.17;90.92;101529.97;5000513;28;20034;-68
2023/08/21 02:25:30;;;;;;;1.45;0.98;;;;;;;20.17;90.56;101527.22;5029918;28;20398;-69
2023/08/21 02:27:55;;;;;;;2.45;1.30;;;;;;;20.17;91.04;101524.47;5030048;28;20083;-68
2023/08/21 02:30:24;;;;;;;2.30;1.25;;;;;;;20.21;90.94;101528.78;4999745;28;20033;-69
2023/08/21 02:32:50;;;;;;;2.80;1.27;;;;;;;20.18;90.39;101528.75;5025802;28;20041;-68
2023/08/21 02:35:16;;;;;;;1.48;0.88;;;;;;;20.15;90.86;101533.06;5029379;28;20441;-68
2023/08/21 02:37:41;;;;;;;1.70;1.40;;;;;;;20.18;90.44;101526.84;5012421;28;20029;-68
2023/08/21 02:40:10;;;;;;;2.17;1.20;;;;;;;20.17;90.32;101536.19;5025212;28;20034;-68
2023/08/21 02:42:36;;;;;;;3.22;1.42;;;;;;;20.14;90.39;101536.22;5025425;28;20033;-69
2023/08/21 02:45:03;;;;;;;2.95;1.27;;;;;;;20.08;90.74;101533.13;5009478;28;20040;-65
2023/08/21 02:47:30;;;;;;;1.38;0.95;;;;;;;20.08;90.56;101533.13;4990476;28;20021;-68
2023/08/21 02:49:56;;;;;;;2.97;1.55;;;;;;;20.07;90.77;101541.72;5006035;28;20030;-68
2023/08/21 02:52:21;;;;;;;3.15;1.27;;;;;;;20.06;90.85;101546.41;5027128;28;20045;-67
2023/08/21 02:54:47;;;;;;;1.75;1.20;;;;;;;20.10;90.54;101535.44;5012456;28;20441;-66
2023/08/21 02:57:12;;;;;;;2.72;1.40;;;;;;;20.08;90.27;101552.25;5007539;28;20033;-68
2023/08/21 02:59:37;;;;;;;2.13;1.30;;;;;;;20.08;89.99;101543.25;5007699;28;20402;-68
2023/08/21 03:02:03;;;;;;;2.92;1.10;;;;;;;20.04;90.19;101553.44;5001884;28;20041;-67
2023/08/21 03:04:28;;;;;;;3.03;1.67;;;;;;;19.96;90.70;101549.16;5019147;28;20038;-68
2023/08/21 03:06:54;;;;;;;4.18;1.05;;;;;;;20.00;90.94;101548.00;5022264;28;20061;-68
2023/08/21 03:09:19;;;;;;;2.42;1.35;;;;;;;20.01;90.72;101543.31;5005597;28;20041;-67
2023/08/21 03:12:05;;;;;;;5.07;1.55;;;;;;;19.99;91.12;101545.66;4987049;28;20073;-69
2023/08/21 03:14:30;;;;;;;1.65;1.10;;;;;;;19.97;90.86;101545.28;4931259;28;20057;-69
2023/08/21 03:16:56;;;;;;;1.63;1.20;;;;;;;19.97;90.76;101551.53;4952073;28;20043;-68
2023/08/21 03:19:22;;;;;;;2.05;1.10;;;;;;;20.02;90.57;101550.31;4950610;28;20042;-68
2023/08/21 03:21:47;;;;;;;2.25;1.33;;;;;;;19.89;91.33;101551.94;4980218;28;20093;-68
2023/08/21 03:24:13;;;;;;;1.67;1.25;;;;;;;19.84;91.36;101555.09;4964050;28;20042;-67
2023/08/21 03:26:38;;;;;;;2.72;1.40;;;;;;;19.79;92.14;101553.53;4959106;28;20041;-68
2023/08/21 03:29:04;;;;;;;2.05;1.30;;;;;;;19.84;92.00;101552.34;4941131;29;20027;-69
2023/08/21 03:31:30;;;;;;;2.28;1.10;;;;;;;19.75;91.27;101553.53;4975997;28;20049;-68
2023/08/21 03:33:56;;;;;;;2.60;1.10;;;;;;;19.71;92.03;101546.53;4962608;28;20033;-68
2023/08/21 03:36:31;;;;;;;1.40;1.02;;;;;;;19.70;91.60;101550.44;4937935;28;20630;-69
2023/08/21 03:38:58;;;;;;;1.95;1.17;;;;;;;19.73;91.24;101550.44;4958724;28;20155;-67
2023/08/21 03:41:24;;;;;;;1.35;1.20;;;;;;;19.73;91.28;101538.69;4952175;29;20151;-66
2023/08/21 03:43:50;;;;;;;1.55;1.10;;;;;;;19.74;90.96;101538.31;4964762;28;20440;-68
2023/08/21 03:46:15;;;;;;;1.55;1.02;;;;;;;19.67;91.16;101538.31;4966953;28;20046;-64
2023/08/21 03:48:41;;;;;;;1.58;1.13;;;;;;;19.69;90.88;101555.13;4969152;28;20805;-67
2023/08/21 03:51:06;;;;;;;2.65;1.38;;;;;;;19.67;91.21;101543.78;4995158;28;20073;-69
2023/08/21 03:53:32;;;;;;;1.13;0.82;;;;;;;19.59;91.16;101552.41;5014662;28;20056;-68
2023/08/21 03:55:59;;;;;;;4.57;1.08;;;;;;;19.56;91.65;101543.06;5010396;28;20107;-65
2023/08/21 03:58:26;;;;;;;1.08;0.90;;;;;;;19.60;91.43;101545.78;5014446;28;20405;-69
2023/08/21 04:01:15;;;;;;;3.13;1.27;;;;;;;19.57;91.66;101546.53;5014991;28;20029;-68
2023/08/21 04:03:42;;;;;;;4.50;1.45;;;;;;;19.58;91.33;101548.13;4931240;29;20051;-69
2023/08/21 04:06:07;;;;;;;3.25;1.00;;;;;;;19.62;91.46;101549.69;4935764;29;20031;-67
2023/08/21 04:08:33;;;;;;;4.85;1.38;;;;;;;19.62;91.15;101551.63;4952161;28;20096;-68
2023/08/21 04:10:59;;;;;;;4.35;1.40;;;;;;;19.60;91.26;101556.72;4935477;29;20086;-69
2023/08/21 04:13:25;;;;;;;1.38;1.15;;;;;;;19.57;91.56;101552.78;4947936;29;20045;-68
2023/08/21 04:15:53;;;;;;;1.20;0.90;;;;;;;19.50;91.31;101557.50;4965256;28;20047;-69
2023/08/21 04:18:19;;;;;;;1.63;1.05;;;;;;;19.45;91.93;101553.19;4951735;28;20039;-69
2023/08/21 04:20:44;;;;;;;4.95;1.38;;;;;;;19.50;92.21;101543.84;4932474;28;20043;-68
2023/08/21 04:23:10;;;;;;;2.63;1.75;;;;;;;19.51;92.40;101543.44;4968848;22;20588;-66
2023/08/21 04:25:35;;;;;;;2.38;1.88;;;;;;;19.56;92.13;101553.97;5064700;28;20559;-67
2023/08/21 04:28:01;;;;;;;1.02;0.80;;;;;;;19.46;92.81;101560.25;5077041;28;20016;-66
2023/08/21 04:30:27;;;;;;;2.30;0.95;;;;;;;19.51;92.80;101553.59;5067471;28;20039;-66
2023/08/21 04:32:52;;;;;;;1.10;0.88;;;;;;;19.48;92.44;101549.69;5069045;28;20071;-66
2023/08/21 04:35:18;;;;;;;2.33;1.38;;;;;;;19.49;92.99;101553.22;5066476;28;20124;-66
2023/08/21 04:37:47;;;;;;;2.15;1.23;;;;;;;19.48;93.15;101560.63;5080348;28;20501;-67
2023/08/21 04:40:14;;;;;;;2.85;1.38;;;;;;;19.50;92.75;101555.56;5055664;28;20083;-67
2023/08/21 04:42:39;;;;;;;2.33;1.30;;;;;;;19.48;92.71;101555.16;5067251;28;20072;-67
2023/08/21 04:45:05;;;;;;;1.05;0.98;;;;;;;19.46;93.17;101557.50;5065021;28;20040;-66
2023/08/21 04:47:33;;;;;;;2.45;1.30;;;;;;;19.49;93.16;101561.41;5056856;28;20030;-67
2023/08/21 04:49:59;;;;;;;1.77;1.40;;;;;;;19.45;93.55;101566.88;5056904;28;20036;-66
2023/08/21 04:52:26;;;;;;;2.42;1.17;;;;;;;19.48;93.06;101563.38;5057397;28;20028;-67
2023/08/21 04:54:53;;;;;;;2.05;1.00;;;;;;;19.44;93.65;101570.78;5082162;28;20032;-66
2023/08/21 04:57:18;;;;;;;2.25;1.25;;;;;;;19.48;93.85;101566.09;5051081;28;20025;-68
2023/08/21 04:59:44;;;;;;;2.83;1.50;;;;;;;19.42;94.32;101564.94;5053084;28;20416;-66
2023/08/21 05:02:10;;;;;;;2.88;1.45;;;;;;;19.47;94.29;101566.50;5061635;28;20056;-67
2023/08/21 05:04:37;;;;;;;1.23;1.13;;;;;;;19.54;94.10;101558.28;5074936;28;20086;-67
2023/08/21 05:07:04;;;;;;;2.17;1.45;;;;;;;19.58;94.16;101564.50;5075231;28;20028;-67
2023/08/21 05:09:30;;;;;;;3.17;1.60;;;;;;;19.68;93.92;101569.19;5059673;28;20691;-67
2023/08/21 05:11:56;;;;;;;2.65;1.20;;;;;;;19.77;93.99;101573.06;5076138;28;20405;-66
2023/08/21 05:14:22;;;;;;;3.50;1.08;;;;;;;19.82;94.36;101577.38;5055320;28;20024;-67
2023/08/21 05:17:11;;;;;;;2.63;1.20;;;;;;;19.92;94.67;101578.50;5061177;28;20055;-67
2023/08/21 05:19:36;;;;;;;2.40;1.58;;;;;;;19.97;95.11;101576.16;5004252;28;20145;-67
2023/08/21 05:22:02;;;;;;;3.75;1.20;;;;;;;20.01;95.33;101585.13;5009672;28;20173;-67
2023/08/21 05:24:33;;;;;;;4.28;1.30;;;;;;;20.09;95.34;101583.91;4986982;28;20049;-67
2023/08/21 05:27:04;;;;;;;2.80;1.33;;;;;;;20.13;95.50;101584.66;4992323;28;20528;-67
2023/08/21 05:29:30;;;;;;;2.13;1.02;;;;;;;20.22;95.78;101587.03;5004443;28;20080;-68
2023/08/21 05:31:55;;;;;;;2.10;1.05;;;;;;;20.31;95.67;101585.41;4993409;28;20130;-68
2023/08/21 05:34:22;;;;;;;5.13;1.75;;;;;;;20.41;95.20;101586.53;4981265;28;20598;-67
2023/08/21 05:36:47;;;;;;;2.33;1.30;;;;;;;20.41;96.12;101578.31;5002800;28;20168;-67
2023/08/21 05:39:13;;;;;;;2.78;1.10;;;;;;;20.48;95.87;101578.28;4994534;28;20536;-67
2023/08/21 05:41:38;;;;;;;5.70;1.50;;;;;;;20.55;96.21;101579.03;5005263;28;20176;-68
2023/08/21 05:44:04;;;;;;;2.08;1.00;;;;;;;20.65;95.89;101583.66;5004343;28;20127;-67
2023/08/21 05:46:29;;;;;;;1.50;1.15;;;;;;;20.74;95.43;101583.22;4974569;28;20033;-67
2023/08/21 05:48:55;;;;;;;2.15;1.17;;;;;;;20.84;95.26;101585.13;4995119;28;20044;-66
2023/08/21 05:51:21;;;;;;;1.52;1.00;;;;;;;20.89;94.86;101581.94;4988703;28;20041;-67
2023/08/21 05:53:46;;;;;;;2.03;1.00;;;;;;;20.99;94.77;101588.53;4989526;28;20018;-66
2023/08/21 05:56:12;;;;;;;2.70;1.02;;;;;;;21.07;94.47;101593.59;5014749;28;20475;-67
2023/08/21 05:58:37;;;;;;;7.50;1.52;;;;;;;21.12;94.37;101590.41;5066464;28;20044;-67
2023/08/21 06:01:03;;;;;;;2.85;0.93;;;;;;;21.19;94.31;101595.84;5045407;28;20025;-67
2023/08/21 06:03:31;;;;;;;2.13;0.90;;;;;;;21.21;93.82;101598.19;5063330;28;20040;-67
2023/08/21 06:06:08;;;;;;;3.17;1.33;;;;;;;21.29;94.36;101594.22;5066435;28;20013;-67
2023/08/21 06:08:34;;;;;;;2.25;0.90;;;;;;;21.44;93.70;101599.16;5057593;28;20025;-67
2023/08/21 06:11:00;;;;;;;5.88;1.05;;;;;;;21.54;93.14;101601.00;5057307;28;20188;-66
2023/08/21 06:13:26;;;;;;;2.42;0.95;;;;;;;21.62;93.17;101595.47;5059270;28;20397;-67
2023/08/21 06:15:54;;;;;;;3.03;1.00;;;;;;;21.65;93.05;101605.63;5059257;28;20504;-67
2023/08/21 06:18:21;;;;;;;1.85;0.90;;;;;;;21.74;93.12;101606.69;5070370;28;20475;-66
2023/08/21 06:20:47;;;;;;;1.40;0.80;;;;;;;21.79;93.09;101600.00;5053553;28;20036;-66
2023/08/21 06:23:12;;;;;;;4.65;0.93;;;;;;;21.83;92.97;101606.25;5063050;28;20138;-66
2023/08/21 06:25:38;;;;;;;2.15;0.82;;;;;;;21.96;93.07;101602.59;5057606;28;20027;-66
2023/08/21 06:28:04;;;;;;;1.63;0.50;;;;;;;22.11;92.18;101614.16;5070779;28;20127;-67
2023/08/21 06:30:31;;;;;;;1.52;0.80;;;;;;;22.26;92.21;101605.34;5074262;28;20054;-67
2023/08/21 06:32:57;;;;;;;1.35;0.85;;;;;;;22.51;91.08;101613.28;5049147;28;20033;-67
2023/08/21 06:35:24;;;;;;;1.38;0.80;;;;;;;22.72;90.51;101618.53;5055632;28;20101;-67
2023/08/21 06:37:51;;;;;;;2.67;1.08;;;;;;;22.93;89.10;101620.19;5084369;28;20033;-67
2023/08/21 06:40:17;;;;;;;4.90;0.80;;;;;;;23.10;88.66;101614.41;5069570;28;20036;-67
2023/08/21 06:42:43;;;;;;;3.67;0.95;;;;;;;23.32;88.04;101616.84;5057090;28;20037;-67
2023/08/21 06:45:08;;;;;;;4.75;0.82;;;;;;;23.53;86.92;101622.78;5051938;28;20030;-67
2023/08/21 06:47:34;;;;;;;2.72;0.60;;;;;;;23.65;85.81;101626.91;5063515;28;20485;-67
2023/08/21 06:50:00;;;;;;;3.90;1.73;;;;;;;23.78;84.77;101623.13;5074721;28;20028;-67
2023/08/21 06:52:26;;;;;;;0.88;0.55;;;;;;;23.96;83.69;101625.53;5055084;28;20404;-67
2023/08/21 06:54:51;;;;;;;2.70;0.60;;;;;;;24.03;83.57;101628.94;5071165;28;20273;-67
2023/08/21 06:57:17;;;;;;;2.15;0.60;;;;;;;24.11;82.81;101630.38;5054702;28;20037;-68
2023/08/21 06:59:42;;;;;;;2.25;0.50;;;;;;;24.23;82.16;101625.41;5056826;28;21459;-67
2023/08/21 07:02:08;;;;;;;2.70;0.60;;;;;;;24.41;80.91;101617.59;5071091;28;20037;-67
2023/08/21 07:04:33;;;;;;;3.03;0.55;;;;;;;24.57;80.85;101634.94;5066833;28;20037;-67
2023/08/21 07:06:59;;;;;;;0.40;0.40;;;;;;;24.70;79.31;101627.53;5064814;28;20408;-67
2023/08/21 07:09:25;;;;;;;2.10;0.38;;;;;;;24.83;79.23;101634.00;5078355;28;20033;-68
2023/08/21 07:11:50;;;;;;;1.88;0.60;;;;;;;25.01;78.61;101630.81;5068790;28;20446;-67
2023/08/21 07:14:16;;;;;;;3.05;0.40;;;;;;;24.93;76.72;101634.97;5073187;28;20495;-66
2023/08/21 07:16:43;;;;;;;2.72;0.40;;;;;;;24.93;75.85;101640.47;5061185;28;20467;-67
2023/08/21 07:19:08;;;;;;;0.52;0.40;;;;;;;24.99;76.17;101633.22;5058254;28;20109;-67
2023/08/21 07:21:36;;;;;;;3.25;0.70;;;;;;;25.12;75.99;101627.81;5070678;28;21227;-67
2023/08/21 07:24:02;;;;;;;5.32;0.50;;;;;;;25.27;75.73;101631.78;5071061;28;20039;-68
2023/08/21 07:26:28;;;;;;;0.93;0.30;;;;;;;25.42;74.97;101633.00;5058350;28;20027;-67
2023/08/21 07:28:54;;;;;;;3.08;0.70;;;;;;;25.51;74.08;101633.94;5068178;28;20023;-66
2023/08/21 07:31:19;;;;;;;0.40;0.40;;;;;;;25.58;73.52;101625.50;5082872;28;20028;-67
2023/08/21 07:33:45;;;;;;;2.85;0.60;;;;;;;25.66;73.00;101624.09;5064279;28;20086;-67
2023/08/21 07:36:14;;;;;;;1.40;0.63;;;;;;;25.79;72.85;101635.19;5061705;28;20468;-67
2023/08/21 07:38:40;;;;;;;3.13;0.45;;;;;;;25.81;72.31;101632.78;5067754;28;20044;-66
2023/08/21 07:41:10;;;;;;;2.22;0.40;;;;;;;25.89;71.44;101639.66;5054214;28;20028;-67
2023/08/21 07:43:43;;;;;;;1.37;0.60;;;;;;;25.89;70.34;101643.19;5071885;28;20032;-68
2023/08/21 07:46:15;;;;;;;2.78;0.43;;;;;;;26.12;69.40;101635.88;5065753;28;20457;-67
2023/08/21 07:48:44;;;;;;;3.45;0.40;;;;;;;26.14;69.61;101641.75;5066859;28;20032;-68
2023/08/21 07:51:10;;;;;;;0.88;0.38;;;;;;;26.39;67.71;101644.59;5069921;28;20039;-67
2023/08/21 07:53:36;;;;;;;5.68;1.27;;;;;;;26.46;66.93;101650.69;5058545;28;20033;-66
2023/08/21 07:56:03;;;;;;;0.98;0.43;;;;;;;26.62;66.66;101636.78;5070927;28;20123;-68
2023/08/21 07:58:31;;;;;;;0.75;0.30;;;;;;;26.78;66.11;101631.19;5056335;28;20232;-68
2023/08/21 08:00:57;;;;;;;0.38;0.38;;;;;;;26.88;64.92;101637.59;5051167;28;20066;-67
2023/08/21 08:03:22;;;;;;;1.55;0.40;;;;;;;27.02;64.20;101639.94;5067148;28;20040;-66
2023/08/21 08:05:48;;;;;;;1.83;0.45;;;;;;;27.04;63.60;101634.72;5083379;28;20036;-67
2023/08/21 08:08:17;;;;;;;2.55;0.20;;;;;;;27.09;61.32;101644.44;5065292;28;20048;-68
2023/08/21 08:10:42;;;;;;;1.00;0.32;;;;;;;27.34;61.26;101636.94;5066870;28;20044;-67
2023/08/21 08:13:08;;;;;;;1.73;0.20;;;;;;;27.45;60.79;101644.84;5059010;28;20477;-68
2023/08/21 08:15:34;;;;;;;1.40;0.35;;;;;;;27.62;60.43;101632.44;5051542;28;20082;-68
2023/08/21 08:18:01;;;;;;;0.73;0.30;;;;;;;27.74;58.34;101639.16;5050291;28;20032;-67
2023/08/21 08:20:27;;;;;;;1.38;0.30;;;;;;;27.83;56.56;101639.22;5068557;28;20117;-67
2023/08/21 08:22:52;;;;;;;1.30;0.30;;;;;;;28.00;55.77;101633.09;5055660;28;20061;-67
2023/08/21 08:25:18;;;;;;;1.52;0.20;;;;;;;28.05;56.78;101634.50;5081554;28;20111;-68
2023/08/21 08:27:44;;;;;;;0.90;0.22;;;;;;;28.24;56.04;101638.94;5064817;28;20517;-68
2023/08/21 08:30:10;;;;;;;0.45;0.30;;;;;;;28.35;55.15;101637.31;5081549;28;20037;-67
2023/08/21 08:32:35;;;;;;;1.55;0.28;;;;;;;28.47;54.83;101636.44;5061100;28;20214;-68
2023/08/21 08:35:01;;;;;;;3.50;0.30;;;;;;;28.58;54.59;101638.06;5063043;28;20044;-67
2023/08/21 08:37:26;;;;;;;1.00;0.20;;;;;;;28.57;54.12;101642.09;5065106;28;20037;-67
2023/08/21 08:39:52;;;;;;;0.57;0.20;;;;;;;28.68;54.45;101640.47;5073538;28;20550;-67
2023/08/21 08:42:17;;;;;;;1.92;0.25;;;;;;;28.80;53.41;101636.81;5071836;28;20035;-67
2023/08/21 08:44:44;;;;;;;3.22;0.50;;;;;;;28.89;52.75;101636.06;5071522;28;20530;-68
2023/08/21 08:47:13;;;;;;;1.13;0.25;;;;;;;28.97;52.63;101643.66;5070317;28;20044;-68
2023/08/21 08:49:38;;;;;;;2.90;0.30;;;;;;;28.99;52.11;101635.66;5061893;28;20056;-68
2023/08/21 08:52:04;;;;;;;0.35;0.20;;;;;;;29.11;53.08;101647.88;5074835;28;20067;-68
2023/08/21 08:54:31;;;;;;;1.20;0.60;;;;;;;29.21;53.37;101639.13;5074829;28;20052;-68
2023/08/21 08:56:57;;;;;;;1.35;0.57;;;;;;;29.32;52.71;101649.81;5055405;28;20388;-68
2023/08/21 08:59:23;;;;;;;0.32;0.32;;;;;;;29.25;52.59;101647.28;5074664;28;20037;-68
2023/08/21 09:01:49;;;;;;;6.70;0.30;;;;;;;29.32;51.84;101644.25;5067167;28;20093;-66
2023/08/21 09:04:14;;;;;;;0.93;0.40;;;;;;;29.51;50.66;101642.25;5077499;28;20461;-67
2023/08/21 09:06:40;;;;;;;3.03;0.20;;;;;;;29.69;50.75;101647.84;5073003;28;20115;-68
2023/08/21 09:09:07;;;;;;;0.35;0.20;;;;;;;29.60;50.10;101640.25;5059587;28;20033;-68
2023/08/21 09:11:33;;;;;;;0.57;0.25;;;;;;;29.68;50.33;101651.84;5066413;28;20103;-68
2023/08/21 09:13:59;;;;;;;0.35;0.10;;;;;;;29.61;49.48;101644.59;5065533;28;20099;-68
2023/08/21 09:16:25;;;;;;;0.57;0.20;;;;;;;29.59;49.17;101646.28;5064888;28;20032;-67
2023/08/21 09:18:58;;;;;;;0.40;0.20;;;;;;;29.83;50.54;101658.38;5064661;28;20048;-67
2023/08/21 09:21:27;;;;;;;0.38;0.20;;;;;;;29.90;50.72;101652.50;5066429;28;20472;-67
2023/08/21 09:24:05;;;;;;;0.30;0.20;;;;;;;29.78;50.92;101656.97;5062580;28;20025;-68
2023/08/21 09:26:37;;;;;;;0.20;0.10;;;;;;;29.90;49.62;101642.16;5066339;28;20078;-68
2023/08/21 09:29:08;;;;;;;0.13;0.10;;;;;;;29.89;50.26;101654.50;5073627;28;20484;-68
2023/08/21 09:31:36;;;;;;;0.82;0.28;;;;;;;29.70;50.21;101649.38;5065296;28;20037;-67
2023/08/21 09:34:06;;;;;;;0.20;0.17;;;;;;;29.89;49.88;101645.38;5057517;28;20029;-67
2023/08/21 09:36:33;;;;;;;1.00;0.20;;;;;;;30.01;50.07;101642.47;5064796;28;20051;-67
2023/08/21 09:38:59;;;;;;;0.20;0.15;;;;;;;30.14;50.60;101645.06;5067740;28;20040;-67
2023/08/21 09:41:26;;;;;;;0.20;0.20;;;;;;;30.39;49.27;101647.50;5066722;28;20473;-67
2023/08/21 09:43:51;;;;;;;1.65;0.40;;;;;;;30.69;48.49;101637.38;5060920;28;20037;-67
2023/08/21 09:46:24;;;;;;;0.52;0.30;;;;;;;30.82;48.44;101643.50;5050380;28;20115;-67
2023/08/21 09:48:52;;;;;;;0.10;0.10;;;;;;;30.91;48.28;101641.47;5069549;28;20048;-68
2023/08/21 09:51:17;;;;;;;0.30;0.20;;;;;;;31.02;47.63;101644.53;5061543;28;20045;-67
2023/08/21 09:53:44;;;;;;;1.17;0.35;;;;;;;31.03;46.53;101639.72;5076474;28;20028;-68
2023/08/21 09:56:10;;;;;;;0.20;0.20;;;;;;;31.03;47.04;101637.72;5075850;28;20037;-67
2023/08/21 09:58:36;;;;;;;3.90;0.30;;;;;;;31.33;46.35;101638.63;5049933;28;20048;-68
2023/08/21 10:01:14;;;;;;;0.80;0.25;;;;;;;31.23;46.24;101633.56;5063679;28;20549;-68
2023/08/21 10:03:42;;;;;;;0.38;0.30;;;;;;;31.43;46.00;101631.78;5067242;28;20043;-68
2023/08/21 10:06:11;;;;;;;1.67;0.57;;;;;;;31.58;45.73;101638.16;5063321;28;20083;-68
2023/08/21 10:08:41;;;;;;;0.30;0.10;;;;;;;31.69;45.62;101640.38;5050260;28;20032;-68
2023/08/21 10:11:08;;;;;;;0.95;0.30;;;;;;;31.78;44.69;101635.53;5061915;28;20031;-68
2023/08/21 10:13:36;;;;;;;0.30;0.20;;;;;;;31.83;44.75;101625.72;5066575;28;20097;-67
2023/08/21 10:16:02;;;;;;;0.40;0.10;;;;;;;31.85;45.50;101635.16;5058332;28;20465;-68
2023/08/21 10:18:37;;;;;;;0.20;0.10;;;;;;;31.93;44.31;101635.59;5069183;28;20036;-67
2023/08/21 10:21:18;;;;;;;3.50;0.20;;;;;;;31.94;43.95;101635.09;5059915;28;20408;-68
2023/08/21 10:23:54;;;;;;;0.65;0.20;;;;;;;32.12;44.06;101636.94;5100132;22;20051;-69
2023/08/21 10:26:21;;;;;;;1.27;0.10;;;;;;;32.20;44.60;101626.94;5049254;28;20047;-69
2023/08/21 10:28:57;;;;;;;1.92;0.20;;;;;;;32.28;43.72;101630.13;5042882;28;20066;-69
2023/08/21 10:31:36;;;;;;;1.42;0.10;;;;;;;32.24;42.55;101629.53;5052334;28;20040;-69
2023/08/21 10:34:04;;;;;;;0.10;0.10;;;;;;;32.23;43.09;101631.56;5045946;28;20025;-69
2023/08/21 10:36:45;;;;;;;0.75;0.20;;;;;;;32.41;42.69;101630.59;5044324;28;20404;-69
2023/08/21 10:39:19;;;;;;;0.50;0.10;;;;;;;32.41;42.44;101633.38;5036060;28;20045;-70
2023/08/21 10:42:00;;;;;;;0.17;0.10;;;;;;;32.40;43.06;101634.66;5043774;28;20025;-70
2023/08/21 10:44:55;;;;;;;0.20;0.10;;;;;;;32.29;42.73;101635.22;5037243;28;20037;-70
2023/08/21 10:47:31;;;;;;;0.80;0.32;;;;;;;31.68;43.53;101633.28;5048560;28;20371;-69
2023/08/21 10:50:07;;;;;;;0.38;0.30;;;;;;;31.17;44.82;101636.25;5041149;28;20047;-69
2023/08/21 10:52:47;;;;;;;0.93;0.20;;;;;;;31.37;44.19;101636.47;5049278;28;20124;-70
2023/08/21 10:55:15;;;;;;;3.13;0.30;;;;;;;31.31;44.09;101641.13;5050321;28;20083;-70
2023/08/21 10:57:41;;;;;;;1.02;0.20;;;;;;;31.13;43.81;101638.44;5036592;28;20414;-70
2023/08/21 11:00:16;;;;;;;0.77;0.50;;;;;;;30.87;43.91;101637.34;5041542;28;20029;-70
2023/08/21 11:02:44;;;;;;;0.45;0.22;;;;;;;30.82;43.89;101635.16;5045255;28;20039;-70
2023/08/21 11:05:11;;;;;;;0.70;0.20;;;;;;;30.74;44.13;101645.09;5037508;28;20048;-70
2023/08/21 11:07:39;;;;;;;0.70;0.20;;;;;;;30.55;43.31;101630.47;5043401;28;20037;-70
2023/08/21 11:10:07;;;;;;;0.70;0.40;;;;;;;30.57;43.63;101632.78;5046269;28;20029;-70
2023/08/21 11:12:32;;;;;;;1.98;0.60;;;;;;;30.84;43.24;101632.69;5043670;28;20041;-70
2023/08/21 11:14:58;;;;;;;2.10;0.50;;;;;;;31.10;42.13;101628.25;5047228;28;20082;-70
2023/08/21 11:17:23;;;;;;;0.35;0.20;;;;;;;31.15;42.13;101633.16;5047851;28;20144;-70
2023/08/21 11:19:50;;;;;;;2.25;0.40;;;;;;;31.44;41.58;101636.09;5043857;28;20115;-69
2023/08/21 11:22:16;;;;;;;2.28;0.20;;;;;;;31.76;40.73;101635.25;5043749;28;20095;-70
2023/08/21 11:24:50;;;;;;;0.00;0.00;;;;;;;31.94;41.00;101635.09;5050899;28;20035;-69
2023/08/21 11:27:18;;;;;;;0.17;0.10;;;;;;;32.09;41.44;101639.94;5040796;28;20481;-69